Time;durP1;ratioP1;P1;durP2;ratioP2;P2;SDS_P1;SDS_P2;PMS_P1;PMS_P2;Temp;Humidity;BMP_temperature;BMP_pressure;BME280_temperature;BME280_humidity;BME280_pressure;Samples;Min_cycle;Max_cycle;Signal;HPM_P1;HPM_P2
2021/06/07 00:02:56;;;;;;;5.82;3.47;;;;;;;16.59;54.46;101885.31;8057742;28;20606;-68
2021/06/07 00:06:47;;;;;;;6.63;3.40;;;;;;;16.56;54.58;101893.53;8058123;28;20048;-68
2021/06/07 00:10:38;;;;;;;5.75;3.40;;;;;;;16.54;54.53;101891.94;8058705;28;20032;-68
2021/06/07 00:14:32;;;;;;;3.83;3.08;;;;;;;16.49;54.59;101892.25;8057614;28;20987;-68
2021/06/07 00:18:24;;;;;;;6.03;3.60;;;;;;;16.48;54.46;101895.91;8058245;28;20469;-68
2021/06/07 00:22:14;;;;;;;5.43;3.47;;;;;;;16.43;54.76;101898.03;8052909;28;21212;-68
2021/06/07 00:26:06;;;;;;;5.38;3.38;;;;;;;16.40;54.70;101895.63;8056244;28;20537;-67
2021/06/07 00:29:57;;;;;;;5.25;3.58;;;;;;;16.37;54.75;101900.31;8055649;28;20522;-68
2021/06/07 00:33:48;;;;;;;5.18;3.70;;;;;;;16.34;54.68;101900.53;8057418;28;20105;-68
2021/06/07 00:37:38;;;;;;;4.50;3.35;;;;;;;16.29;54.68;101898.22;8057205;28;20074;-68
2021/06/07 00:41:29;;;;;;;6.93;3.22;;;;;;;16.25;54.69;101901.19;8055791;28;20037;-67
2021/06/07 00:45:24;;;;;;;4.65;3.30;;;;;;;16.21;54.78;101905.03;8057132;28;20058;-68
2021/06/07 00:49:15;;;;;;;5.40;3.53;;;;;;;16.15;54.71;101898.41;8058162;28;20042;-68
2021/06/07 00:53:11;;;;;;;7.13;4.38;;;;;;;16.10;54.72;101900.50;8055114;28;20024;-67
2021/06/07 00:57:02;;;;;;;5.28;3.35;;;;;;;15.98;54.67;101882.84;8057557;28;20111;-68
2021/06/07 01:00:53;;;;;;;4.43;3.05;;;;;;;15.96;54.64;101896.19;8061762;28;20056;-68
2021/06/07 01:04:44;;;;;;;5.20;3.50;;;;;;;15.91;54.54;101897.50;8062892;28;20043;-68
2021/06/07 01:08:35;;;;;;;3.80;3.25;;;;;;;15.84;54.60;101901.53;8063309;28;20028;-68
2021/06/07 01:12:25;;;;;;;5.80;3.35;;;;;;;15.78;54.49;101900.19;8061951;28;20043;-68
2021/06/07 01:16:17;;;;;;;4.40;3.30;;;;;;;15.72;54.39;101898.81;8062743;28;20050;-68
2021/06/07 01:20:12;;;;;;;5.50;3.67;;;;;;;15.66;54.61;101907.19;8062314;28;20522;-68
2021/06/07 01:24:03;;;;;;;4.93;3.25;;;;;;;15.58;54.56;101896.28;8061800;28;20060;-68
2021/06/07 01:27:56;;;;;;;5.22;3.58;;;;;;;15.59;54.46;101902.44;8061509;28;20027;-68
2021/06/07 01:31:47;;;;;;;5.13;3.50;;;;;;;15.54;54.43;101900.13;8061656;28;20036;-68
2021/06/07 01:35:39;;;;;;;4.22;3.28;;;;;;;15.52;54.80;101902.03;8061376;28;20036;-68
2021/06/07 01:39:29;;;;;;;4.47;3.38;;;;;;;15.50;54.60;101903.94;8062806;28;20050;-68
2021/06/07 01:43:21;;;;;;;4.72;3.60;;;;;;;15.49;54.98;101898.78;8062067;28;20040;-68
2021/06/07 01:47:18;;;;;;;7.25;3.88;;;;;;;15.47;55.32;101898.88;8062507;28;20043;-68
2021/06/07 01:51:10;;;;;;;4.78;3.45;;;;;;;15.51;55.28;101904.78;8060025;28;20032;-68
2021/06/07 01:55:02;;;;;;;7.85;3.55;;;;;;;15.51;55.52;101895.06;8060818;28;20078;-68
2021/06/07 01:58:52;;;;;;;4.10;3.28;;;;;;;15.52;55.38;101898.53;8062113;28;20699;-68
2021/06/07 02:02:44;;;;;;;7.00;4.07;;;;;;;15.47;55.69;101893.56;8059357;28;20606;-68
2021/06/07 02:06:35;;;;;;;5.15;3.92;;;;;;;15.53;55.74;101903.75;8060686;28;20068;-68
2021/06/07 02:10:32;;;;;;;5.75;4.15;;;;;;;15.53;55.54;101911.69;8060725;28;20031;-68
2021/06/07 02:14:22;;;;;;;6.10;3.87;;;;;;;15.54;55.81;101907.25;8060450;28;20040;-68
2021/06/07 02:18:13;;;;;;;6.53;4.28;;;;;;;15.56;55.75;101903.53;8060393;28;22282;-68
2021/06/07 02:22:04;;;;;;;6.40;4.47;;;;;;;15.56;55.92;101903.53;8057364;28;20024;-68
2021/06/07 02:25:57;;;;;;;6.55;4.95;;;;;;;15.54;55.88;101900.13;8060353;28;20024;-68
2021/06/07 02:29:47;;;;;;;6.38;4.70;;;;;;;15.53;55.87;101897.59;8060661;28;20143;-68
2021/06/07 02:33:38;;;;;;;6.85;4.88;;;;;;;15.47;55.83;101898.88;8060751;28;20032;-68
2021/06/07 02:37:29;;;;;;;5.78;4.30;;;;;;;15.43;55.75;101893.91;8058894;28;20063;-68
2021/06/07 02:41:20;;;;;;;7.03;4.47;;;;;;;15.37;55.78;101897.84;8059883;28;20036;-68
2021/06/07 02:45:13;;;;;;;6.97;4.25;;;;;;;15.34;55.70;101897.19;8059369;28;20019;-68
2021/06/07 02:49:05;;;;;;;7.10;4.53;;;;;;;15.28;55.73;101898.44;8059967;28;20024;-67
2021/06/07 02:52:56;;;;;;;6.75;4.35;;;;;;;15.23;55.74;101906.69;8057240;28;20712;-68
2021/06/07 02:56:47;;;;;;;9.63;4.22;;;;;;;15.16;55.62;101900.16;8060229;28;20061;-68
2021/06/07 03:00:50;;;;;;;6.45;4.72;;;;;;;15.11;55.57;101904.06;8060287;28;20067;-68
2021/06/07 03:04:41;;;;;;;6.18;4.68;;;;;;;15.06;55.49;101904.38;8059742;28;20678;-68
2021/06/07 03:08:33;;;;;;;7.07;4.93;;;;;;;15.01;55.59;101898.53;8058637;28;20032;-67
2021/06/07 03:12:24;;;;;;;8.45;4.72;;;;;;;14.96;55.62;101903.28;8058550;28;20092;-67
2021/06/07 03:16:15;;;;;;;5.57;4.50;;;;;;;14.91;55.49;101904.56;8058204;28;20045;-67
2021/06/07 03:20:08;;;;;;;6.90;4.78;;;;;;;14.86;55.53;101907.53;8056320;28;20067;-68
2021/06/07 03:23:59;;;;;;;7.15;4.47;;;;;;;14.81;55.67;101899.06;8052706;28;20129;-68
2021/06/07 03:27:49;;;;;;;6.28;4.70;;;;;;;14.76;55.55;101907.28;8057321;28;20089;-67
2021/06/07 03:31:40;;;;;;;6.40;4.85;;;;;;;14.72;55.60;101907.59;8058418;28;21378;-67
2021/06/07 03:35:33;;;;;;;13.63;5.10;;;;;;;14.68;55.83;101900.81;8058275;28;20032;-67
2021/06/07 03:39:23;;;;;;;7.88;5.00;;;;;;;14.63;55.79;101903.78;8058438;28;20056;-67
2021/06/07 03:43:15;;;;;;;5.32;4.35;;;;;;;14.63;55.63;101908.25;8057506;28;20540;-68
2021/06/07 03:47:06;;;;;;;9.55;4.90;;;;;;;14.60;55.53;101904.00;8057761;28;20557;-67
2021/06/07 03:50:57;;;;;;;6.28;4.50;;;;;;;14.58;55.61;101905.06;8056686;28;20028;-68
2021/06/07 03:54:48;;;;;;;6.18;4.60;;;;;;;14.55;55.79;101914.00;8058170;28;20107;-68
2021/06/07 03:58:39;;;;;;;6.78;4.57;;;;;;;14.54;55.52;101922.91;8057663;28;20040;-67
2021/06/07 04:02:30;;;;;;;7.45;4.90;;;;;;;14.51;55.49;101909.88;8057864;28;20052;-67
2021/06/07 04:06:21;;;;;;;5.75;4.63;;;;;;;14.50;55.51;101918.78;8043517;28;20461;-68
2021/06/07 04:10:15;;;;;;;9.02;4.53;;;;;;;14.48;55.60;101912.72;7938691;28;20486;-68
2021/06/07 04:14:06;;;;;;;7.65;5.00;;;;;;;14.48;55.82;101911.88;7937384;28;20117;-67
2021/06/07 04:17:57;;;;;;;8.30;5.22;;;;;;;14.46;55.80;101914.66;7938114;28;20042;-67
2021/06/07 04:21:49;;;;;;;5.97;4.80;;;;;;;14.47;55.98;101915.47;7932948;28;20060;-67
2021/06/07 04:25:39;;;;;;;7.35;5.28;;;;;;;14.46;55.95;101908.50;7937027;28;20045;-67
2021/06/07 04:29:30;;;;;;;7.60;5.07;;;;;;;14.48;55.92;101910.09;7952283;28;20053;-68
2021/06/07 04:33:22;;;;;;;6.60;4.55;;;;;;;14.48;56.20;101909.25;7936227;28;20038;-67
2021/06/07 04:37:13;;;;;;;6.20;4.75;;;;;;;14.55;56.40;101916.66;7941536;28;20045;-67
2021/06/07 04:41:03;;;;;;;8.35;4.97;;;;;;;14.61;56.32;101908.34;7942845;28;20034;-68
2021/06/07 04:44:54;;;;;;;6.55;5.30;;;;;;;14.67;56.48;101909.72;7945203;28;20030;-67
2021/06/07 04:48:45;;;;;;;5.68;4.70;;;;;;;14.71;56.58;101904.09;7942121;28;20042;-67
2021/06/07 04:52:56;;;;;;;7.47;4.97;;;;;;;14.78;56.42;101910.69;7940784;28;20041;-67
2021/06/07 04:56:47;;;;;;;10.88;5.03;;;;;;;14.85;56.56;101911.13;7947999;28;20037;-67
2021/06/07 05:00:40;;;;;;;6.65;4.70;;;;;;;14.93;56.52;101908.81;7974544;28;20033;-66
2021/06/07 05:04:31;;;;;;;6.78;4.82;;;;;;;15.02;56.73;101917.91;7974594;28;20045;-67
2021/06/07 05:08:22;;;;;;;7.57;5.43;;;;;;;15.09;56.78;101916.53;7973665;28;20041;-67
2021/06/07 05:12:13;;;;;;;7.45;5.65;;;;;;;15.14;56.78;101911.78;7973665;28;20029;-67
2021/06/07 05:16:04;;;;;;;10.48;5.82;;;;;;;15.20;56.87;101917.50;7976632;28;20068;-67
2021/06/07 05:19:55;;;;;;;9.30;5.68;;;;;;;15.27;57.05;101915.28;7975442;28;20039;-67
2021/06/07 05:23:45;;;;;;;13.63;6.47;;;;;;;15.32;56.97;101918.50;7973980;28;20068;-67
2021/06/07 05:27:36;;;;;;;8.13;5.90;;;;;;;15.32;57.14;101905.25;7976870;28;20683;-68
2021/06/07 05:31:27;;;;;;;8.35;5.53;;;;;;;15.45;57.14;101921.13;7977101;28;20396;-67
2021/06/07 05:35:20;;;;;;;8.02;5.78;;;;;;;15.50;56.97;101924.31;7972584;28;20400;-67
2021/06/07 05:39:14;;;;;;;8.68;5.60;;;;;;;15.55;57.37;101930.94;7999201;28;20124;-67
2021/06/07 05:43:05;;;;;;;7.38;5.45;;;;;;;15.57;57.08;101929.06;7975650;28;20053;-68
2021/06/07 05:46:55;;;;;;;7.95;4.82;;;;;;;15.58;57.27;101925.44;7973185;28;20037;-69
2021/06/07 05:50:47;;;;;;;7.03;4.95;;;;;;;15.54;57.14;101923.94;7972360;28;20475;-67
2021/06/07 05:54:39;;;;;;;7.55;5.28;;;;;;;15.58;57.02;101927.25;7972621;28;20128;-67
2021/06/07 05:58:30;;;;;;;7.28;4.65;;;;;;;15.60;57.17;101930.63;7973127;28;20029;-68
2021/06/07 06:02:20;;;;;;;7.07;5.25;;;;;;;15.63;56.99;101931.25;7974281;28;20443;-67
2021/06/07 06:06:11;;;;;;;9.25;5.32;;;;;;;15.64;57.06;101932.09;7996515;28;20045;-67
2021/06/07 06:10:03;;;;;;;8.35;5.65;;;;;;;15.69;57.04;101935.28;7970922;28;20059;-68
2021/06/07 06:13:53;;;;;;;10.20;5.05;;;;;;;15.69;57.09;101925.53;7969025;28;20083;-68
2021/06/07 06:17:44;;;;;;;6.60;4.57;;;;;;;15.72;57.07;101935.06;7973713;28;20239;-68
2021/06/07 06:21:39;;;;;;;8.98;5.50;;;;;;;15.69;56.99;101930.00;7969090;28;20715;-68
2021/06/07 06:25:29;;;;;;;9.25;6.13;;;;;;;15.77;57.11;101935.59;7970039;28;20033;-67
2021/06/07 06:29:20;;;;;;;9.15;6.10;;;;;;;15.82;57.11;101935.25;7966654;28;20063;-66
2021/06/07 06:33:11;;;;;;;10.68;6.47;;;;;;;15.88;57.08;101935.66;7966828;28;20026;-67
2021/06/07 06:37:02;;;;;;;10.80;7.55;;;;;;;15.95;56.99;101933.44;7971154;28;20045;-67
2021/06/07 06:40:53;;;;;;;16.85;10.63;;;;;;;16.04;57.02;101930.94;7969321;28;20299;-67
2021/06/07 06:44:44;;;;;;;15.77;9.70;;;;;;;16.10;57.16;101929.66;7974341;28;20516;-67
2021/06/07 06:48:34;;;;;;;15.43;9.27;;;;;;;16.17;57.21;101926.47;7969372;28;20045;-67
2021/06/07 06:52:25;;;;;;;22.08;12.32;;;;;;;16.25;57.12;101938.31;7966524;28;20389;-66
2021/06/07 06:56:16;;;;;;;19.00;10.27;;;;;;;16.21;57.10;101940.34;7970691;28;20398;-66
2021/06/07 07:00:08;;;;;;;19.05;10.85;;;;;;;16.27;56.98;101937.25;7971082;28;20038;-67
2021/06/07 07:03:59;;;;;;;19.13;10.32;;;;;;;16.34;56.99;101948.25;7971894;28;20040;-67
2021/06/07 07:07:49;;;;;;;20.17;11.18;;;;;;;16.36;56.94;101947.19;7971268;28;20041;-67
2021/06/07 07:11:40;;;;;;;21.45;11.27;;;;;;;16.41;56.86;101950.34;7969972;28;20032;-66
2021/06/07 07:15:31;;;;;;;23.60;11.88;;;;;;;16.45;56.78;101950.97;7972549;28;20038;-67
2021/06/07 07:19:21;;;;;;;22.33;14.23;;;;;;;16.48;56.65;101956.91;7970229;28;20033;-68
2021/06/07 07:23:12;;;;;;;25.35;13.05;;;;;;;16.51;56.65;101955.81;7968755;28;20029;-67
2021/06/07 07:27:05;;;;;;;23.30;12.35;;;;;;;16.53;56.59;101957.38;7972858;28;20021;-68
2021/06/07 07:30:56;;;;;;;21.73;12.15;;;;;;;16.56;56.70;101957.19;7970890;28;20421;-67
2021/06/07 07:34:47;;;;;;;20.42;11.18;;;;;;;16.58;56.58;101960.53;7969189;28;20575;-68
2021/06/07 07:38:38;;;;;;;15.48;10.00;;;;;;;16.60;56.48;101961.28;7970473;28;20090;-67
2021/06/07 07:42:29;;;;;;;23.88;14.38;;;;;;;16.66;56.47;101956.50;7971905;28;20068;-68
2021/06/07 07:46:20;;;;;;;24.65;13.20;;;;;;;16.72;56.22;101956.88;7969759;28;20033;-67
2021/06/07 07:50:15;;;;;;;22.73;13.30;;;;;;;16.73;56.31;101953.28;7967678;28;20029;-68
2021/06/07 07:54:07;;;;;;;20.85;11.75;;;;;;;16.80;56.29;101957.16;7968791;28;20070;-67
2021/06/07 07:58:00;;;;;;;18.85;10.82;;;;;;;16.89;56.29;101956.47;7970023;28;20041;-68
2021/06/07 08:01:51;;;;;;;21.85;12.65;;;;;;;16.94;56.07;101950.84;7968880;28;20048;-68
2021/06/07 08:05:43;;;;;;;22.15;11.48;;;;;;;17.04;56.04;101952.66;7968719;28;20037;-66
2021/06/07 08:09:34;;;;;;;22.17;12.70;;;;;;;17.13;56.08;101942.28;7966177;28;20041;-67
2021/06/07 08:13:25;;;;;;;17.35;12.13;;;;;;;17.26;56.11;101953.66;7967764;28;20029;-67
2021/06/07 08:17:16;;;;;;;18.70;12.57;;;;;;;17.32;55.83;101954.03;7970443;28;20037;-69
2021/06/07 08:21:07;;;;;;;19.50;11.43;;;;;;;17.37;55.94;101949.22;7967113;28;20488;-67
2021/06/07 08:24:58;;;;;;;18.67;12.35;;;;;;;17.43;55.98;101946.09;7968990;28;20037;-67
2021/06/07 08:28:48;;;;;;;20.20;13.20;;;;;;;17.49;55.62;101950.91;7968548;28;20041;-68
2021/06/07 08:32:39;;;;;;;22.38;12.60;;;;;;;17.61;55.61;101950.94;7968534;28;20036;-67
2021/06/07 08:36:31;;;;;;;20.83;13.10;;;;;;;17.70;55.66;101945.75;7968444;28;20928;-67
2021/06/07 08:40:21;;;;;;;19.83;12.73;;;;;;;17.84;55.52;101944.66;7967874;28;20504;-67
2021/06/07 08:44:12;;;;;;;27.45;14.93;;;;;;;17.95;55.37;101947.28;7970129;28;20040;-68
2021/06/07 08:48:03;;;;;;;23.15;13.68;;;;;;;18.12;55.25;101953.91;7969168;28;20068;-69
2021/06/07 08:51:54;;;;;;;22.58;14.52;;;;;;;18.25;55.32;101933.31;7966215;28;20490;-69
2021/06/07 08:55:45;;;;;;;25.92;14.07;;;;;;;18.53;55.25;101938.09;7969310;28;20048;-68
2021/06/07 08:59:35;;;;;;;25.02;14.45;;;;;;;18.78;54.77;101937.72;7964718;28;20101;-68
2021/06/07 09:03:31;;;;;;;24.67;14.95;;;;;;;19.23;54.46;101938.31;7969087;28;20047;-67
2021/06/07 09:07:22;;;;;;;23.05;14.63;;;;;;;19.78;54.48;101945.03;7967353;28;20045;-68
2021/06/07 09:11:18;;;;;;;22.63;14.55;;;;;;;19.98;53.84;101940.63;7968898;28;20033;-70
2021/06/07 09:15:27;;;;;;;25.77;15.80;;;;;;;20.20;54.19;101945.72;7969138;28;20048;-70
2021/06/07 09:19:26;;;;;;;24.48;15.93;;;;;;;20.48;53.80;101936.06;7967318;28;20072;-67
2021/06/07 09:23:17;;;;;;;22.02;14.55;;;;;;;20.61;53.21;101941.13;7969600;28;20108;-69
2021/06/07 09:27:08;;;;;;;18.90;14.15;;;;;;;20.55;52.87;101939.88;7975574;28;20041;-69
2021/06/07 09:31:01;;;;;;;22.17;14.98;;;;;;;20.54;52.76;101926.69;7971689;28;20040;-67
2021/06/07 09:35:10;;;;;;;21.35;14.88;;;;;;;20.68;52.56;101929.75;7975497;28;20417;-67
2021/06/07 09:39:12;;;;;;;18.17;13.35;;;;;;;20.79;52.70;101930.59;7973930;28;20175;-68
2021/06/07 09:43:05;;;;;;;17.10;11.10;;;;;;;20.85;52.64;101924.66;7975956;28;20037;-67
2021/06/07 09:47:17;;;;;;;18.75;13.18;;;;;;;20.75;52.16;101940.72;7975536;28;20033;-69
2021/06/07 09:51:07;;;;;;;21.83;13.82;;;;;;;20.57;51.66;101939.75;7973725;28;20021;-70
2021/06/07 09:55:06;;;;;;;19.67;13.07;;;;;;;20.38;51.93;101937.03;7971206;28;20144;-67
2021/06/07 09:58:57;;;;;;;19.42;13.13;;;;;;;20.26;52.11;101939.00;7955259;28;20091;-68
2021/06/07 10:02:48;;;;;;;23.38;12.80;;;;;;;20.15;51.67;101934.63;7956305;28;20037;-68
2021/06/07 10:06:38;;;;;;;19.55;11.38;;;;;;;20.10;51.67;101939.53;7977206;28;20033;-67
2021/06/07 10:10:29;;;;;;;15.93;10.27;;;;;;;20.04;51.78;101940.09;7970433;28;20137;-67
2021/06/07 10:14:22;;;;;;;14.32;8.82;;;;;;;20.01;51.85;101942.19;7972978;28;20041;-69
2021/06/07 10:18:19;;;;;;;12.00;8.63;;;;;;;19.98;51.55;101929.94;7976218;28;20057;-67
2021/06/07 10:22:09;;;;;;;13.38;9.07;;;;;;;19.95;51.75;101924.91;7971942;28;20037;-68
2021/06/07 10:26:03;;;;;;;15.07;10.27;;;;;;;19.95;51.57;101930.22;7970200;28;20044;-66
2021/06/07 10:29:56;;;;;;;12.32;9.35;;;;;;;19.92;51.19;101924.34;7973552;28;20116;-65
2021/06/07 10:34:04;;;;;;;12.68;9.70;;;;;;;19.91;51.22;101912.81;7971488;28;20056;-68
2021/06/07 10:38:08;;;;;;;15.43;10.30;;;;;;;19.99;50.95;101928.13;7972682;28;20049;-68
2021/06/07 10:41:59;;;;;;;12.45;9.50;;;;;;;20.00;51.53;101928.00;7970281;28;20107;-66
2021/06/07 10:45:50;;;;;;;9.68;7.43;;;;;;;20.05;51.48;101922.25;7973229;28;20100;-69
2021/06/07 10:49:42;;;;;;;8.13;5.50;;;;;;;20.02;51.23;101926.03;7974026;28;20041;-67
2021/06/07 10:53:33;;;;;;;10.65;5.25;;;;;;;20.00;50.97;101929.81;7969393;28;20045;-68
2021/06/07 10:57:45;;;;;;;6.18;4.45;;;;;;;19.95;50.96;101927.56;7970672;28;20279;-65
2021/06/07 11:01:59;;;;;;;6.35;4.50;;;;;;;19.83;50.91;101932.16;7968677;28;20576;-68
2021/06/07 11:05:56;;;;;;;6.57;5.03;;;;;;;19.79;50.97;101928.06;7969743;28;20542;-67
2021/06/07 11:10:10;;;;;;;5.72;4.78;;;;;;;19.72;50.76;101931.41;7970201;28;20052;-66
2021/06/07 11:14:02;;;;;;;14.23;5.05;;;;;;;19.68;51.11;101924.66;7969982;28;20083;-69
2021/06/07 11:18:26;;;;;;;8.85;5.63;;;;;;;19.62;50.66;101931.38;7970494;28;20057;-66
2021/06/07 11:22:16;;;;;;;7.50;5.72;;;;;;;19.64;50.52;101924.06;7966473;28;20046;-68
2021/06/07 11:26:10;;;;;;;7.38;5.50;;;;;;;19.68;50.60;101925.47;7972558;28;20091;-67
2021/06/07 11:30:14;;;;;;;8.07;5.93;;;;;;;19.71;50.39;101927.06;7967906;28;20037;-66
2021/06/07 11:34:11;;;;;;;8.00;5.90;;;;;;;19.71;50.63;101922.56;7970052;28;20069;-67
2021/06/07 11:38:27;;;;;;;8.63;6.22;;;;;;;19.75;50.36;101923.97;7970480;28;20041;-67
2021/06/07 11:42:23;;;;;;;10.80;6.55;;;;;;;19.82;50.55;101917.13;7968835;28;20051;-67
2021/06/07 11:46:29;;;;;;;12.25;6.97;;;;;;;19.86;50.45;101915.06;7972003;28;20575;-67
2021/06/07 11:50:26;;;;;;;9.88;7.05;;;;;;;19.94;50.12;101927.69;7965529;28;20036;-67
2021/06/07 11:54:26;;;;;;;7.97;6.70;;;;;;;19.96;50.03;101923.09;7970896;28;20051;-67
2021/06/07 11:58:22;;;;;;;7.75;5.90;;;;;;;19.97;49.61;101922.09;7969339;28;20041;-67
2021/06/07 12:02:15;;;;;;;8.77;5.68;;;;;;;19.99;49.70;101914.81;7971848;28;20037;-67
2021/06/07 12:06:07;;;;;;;9.20;6.68;;;;;;;20.01;49.83;101919.00;7973075;28;20474;-67
2021/06/07 12:09:58;;;;;;;10.38;5.93;;;;;;;20.01;49.86;101910.19;7969301;28;20040;-67
2021/06/07 12:13:49;;;;;;;7.22;5.07;;;;;;;20.02;49.76;101918.03;7971717;28;20036;-67
2021/06/07 12:17:49;;;;;;;9.30;6.05;;;;;;;20.01;49.46;101915.53;7969568;28;20079;-67
2021/06/07 12:21:39;;;;;;;8.93;5.82;;;;;;;19.98;49.44;101908.63;7968802;28;20045;-67
2021/06/07 12:28:17;;;;;;;9.38;6.80;;;;;;;20.00;49.34;101909.34;7967289;28;20034;-68
2021/06/07 12:29:56;;;;;;;7.68;5.78;;;;;;;20.00;49.43;101911.16;7970192;28;20136;-67
2021/06/07 12:33:47;;;;;;;8.23;6.28;;;;;;;20.00;49.42;101903.16;7966663;28;20039;-67
2021/06/07 12:38:05;;;;;;;8.05;6.20;;;;;;;19.97;49.38;101908.78;7970102;28;20094;-67
2021/06/07 12:41:56;;;;;;;5.45;4.43;;;;;;;19.94;48.92;101899.22;7966499;28;20050;-67
2021/06/07 12:45:54;;;;;;;13.38;5.75;;;;;;;19.97;48.86;101896.25;7968223;28;20037;-67
2021/06/07 12:49:45;;;;;;;5.28;4.22;;;;;;;19.99;48.55;101904.97;7970205;28;20049;-67
2021/06/07 12:53:41;;;;;;;7.03;4.13;;;;;;;19.99;48.63;101907.66;7966297;28;20041;-66
2021/06/07 12:57:32;;;;;;;11.73;4.33;;;;;;;19.98;48.66;101905.94;7976229;28;20169;-68
2021/06/07 13:01:38;;;;;;;8.45;4.90;;;;;;;19.98;48.54;101900.63;7973201;28;20563;-67
2021/06/07 13:05:38;;;;;;;8.05;3.92;;;;;;;20.01;48.43;101902.19;7975874;28;20041;-67
2021/06/07 13:09:36;;;;;;;5.80;4.50;;;;;;;20.01;48.54;101900.34;7973062;28;20041;-67
2021/06/07 13:13:34;;;;;;;7.50;4.60;;;;;;;19.98;48.33;101907.78;7973015;28;20733;-67
2021/06/07 13:17:24;;;;;;;5.90;3.88;;;;;;;19.95;48.47;101895.56;7974227;28;20595;-67
2021/06/07 13:21:18;;;;;;;6.20;4.30;;;;;;;19.93;48.25;101897.50;7970133;28;20490;-67
2021/06/07 13:25:17;;;;;;;6.63;3.22;;;;;;;19.92;48.13;101901.19;7972777;28;20045;-67
2021/06/07 13:29:10;;;;;;;4.75;3.58;;;;;;;19.91;48.43;101906.66;7973617;28;20029;-67
2021/06/07 13:33:01;;;;;;;8.02;4.43;;;;;;;19.88;48.38;101893.59;7973209;28;20436;-67
2021/06/07 13:37:09;;;;;;;7.13;3.65;;;;;;;19.89;47.97;101893.44;7973648;28;20543;-67
2021/06/07 13:41:14;;;;;;;6.85;4.03;;;;;;;19.91;48.20;101886.16;7974002;28;20037;-67
2021/06/07 13:45:06;;;;;;;5.07;3.65;;;;;;;19.99;48.49;101893.47;7975296;28;20030;-67
2021/06/07 13:49:12;;;;;;;5.05;3.35;;;;;;;20.03;48.32;101889.53;7972999;28;20045;-67
2021/06/07 13:53:08;;;;;;;5.05;3.80;;;;;;;20.08;48.01;101884.63;7973104;28;20089;-67
2021/06/07 13:57:02;;;;;;;5.28;4.15;;;;;;;20.09;48.04;101891.66;7969882;28;20045;-67
2021/06/07 14:00:55;;;;;;;7.32;4.00;;;;;;;20.15;48.10;101888.44;7970651;28;20033;-67
2021/06/07 14:04:45;;;;;;;4.97;4.03;;;;;;;20.09;47.76;101873.84;7972285;28;20055;-67
2021/06/07 14:08:39;;;;;;;5.43;3.90;;;;;;;20.19;47.68;101885.34;7972103;28;20033;-67
2021/06/07 14:12:29;;;;;;;7.07;3.88;;;;;;;20.15;47.98;101873.25;7972124;28;20044;-67
2021/06/07 14:16:20;;;;;;;4.75;3.60;;;;;;;20.24;47.63;101887.59;7972993;28;20041;-67
2021/06/07 14:20:12;;;;;;;7.57;4.57;;;;;;;20.25;47.51;101892.81;7973171;28;20136;-67
2021/06/07 14:28:13;;;;;;;5.18;3.60;;;;;;;20.23;47.20;101877.91;7971325;28;20045;-67
2021/06/07 14:32:07;;;;;;;7.25;3.67;;;;;;;20.27;47.23;101868.63;7972930;28;20046;-67
2021/06/07 14:36:02;;;;;;;4.85;3.55;;;;;;;20.27;47.12;101872.16;7972447;28;20069;-67
2021/06/07 14:39:53;;;;;;;5.45;3.45;;;;;;;20.28;47.48;101864.97;7967234;28;20091;-67
2021/06/07 14:43:49;;;;;;;5.07;4.05;;;;;;;20.31;47.34;101862.03;7995250;28;20033;-68
2021/06/07 14:47:40;;;;;;;5.40;3.50;;;;;;;20.33;47.29;101864.56;7971070;28;20048;-67
2021/06/07 14:51:31;;;;;;;5.25;3.50;;;;;;;20.31;47.11;101867.38;7969397;28;20163;-67
2021/06/07 14:55:24;;;;;;;4.80;3.35;;;;;;;20.31;47.11;101861.19;7969778;28;20072;-67
2021/06/07 14:59:14;;;;;;;5.07;3.42;;;;;;;20.33;47.38;101867.22;7973881;28;20094;-68
2021/06/07 15:03:05;;;;;;;6.68;3.92;;;;;;;20.37;47.00;101863.31;7973543;28;20583;-67
2021/06/07 15:06:56;;;;;;;4.28;3.35;;;;;;;20.40;46.87;101853.19;7971447;28;20413;-68
2021/06/07 15:10:47;;;;;;;4.15;3.42;;;;;;;20.39;46.78;101843.47;7971770;28;20130;-68
2021/06/07 15:14:38;;;;;;;5.25;3.95;;;;;;;20.43;46.64;101852.03;7967817;28;20049;-68
2021/06/07 15:18:29;;;;;;;8.00;3.55;;;;;;;20.44;47.04;101849.25;7970796;28;20133;-67
2021/06/07 15:22:19;;;;;;;5.15;3.67;;;;;;;20.46;46.54;101841.94;7970404;28;20037;-68
2021/06/07 15:26:10;;;;;;;6.03;3.95;;;;;;;20.47;46.77;101840.13;7972411;28;20378;-67
2021/06/07 15:30:05;;;;;;;5.57;4.10;;;;;;;20.48;46.43;101839.97;7971797;28;20046;-67
2021/06/07 15:33:55;;;;;;;7.25;4.30;;;;;;;20.48;46.54;101841.78;7973390;28;20021;-69
2021/06/07 15:37:46;;;;;;;5.35;4.10;;;;;;;20.47;46.67;101840.13;7973162;28;20415;-67
2021/06/07 15:41:37;;;;;;;4.32;3.15;;;;;;;20.45;46.62;101828.75;7969553;28;20041;-69
2021/06/07 15:45:28;;;;;;;4.57;3.30;;;;;;;20.46;46.72;101828.59;7970326;28;20041;-69
2021/06/07 15:49:18;;;;;;;7.00;3.88;;;;;;;20.49;46.60;101827.47;7973175;28;20041;-69
2021/06/07 15:53:09;;;;;;;6.20;4.10;;;;;;;20.51;46.72;101821.00;7978835;28;20044;-68
2021/06/07 15:57:00;;;;;;;5.43;3.95;;;;;;;20.57;46.95;101820.47;7969244;28;20029;-69
2021/06/07 16:00:51;;;;;;;6.28;3.90;;;;;;;20.59;46.17;101817.66;7968162;28;20109;-68
2021/06/07 16:04:41;;;;;;;5.85;4.00;;;;;;;20.59;46.59;101823.81;7971929;28;20469;-66
2021/06/07 16:08:32;;;;;;;6.85;4.15;;;;;;;20.57;46.24;101815.13;7969538;28;20044;-68
2021/06/07 16:12:23;;;;;;;5.68;4.60;;;;;;;20.58;46.32;101816.81;7970307;28;20728;-69
2021/06/07 16:16:24;;;;;;;4.57;4.05;;;;;;;20.61;46.23;101805.00;7971050;28;20034;-67
2021/06/07 16:24:24;;;;;;;7.50;3.55;;;;;;;20.61;46.38;101811.19;7967775;28;20041;-67
2021/06/07 16:28:15;;;;;;;7.18;5.10;;;;;;;20.59;45.96;101804.31;7971188;28;20075;-66
2021/06/07 16:32:06;;;;;;;7.18;4.80;;;;;;;20.52;45.86;101808.50;7974997;28;20047;-67
2021/06/07 16:35:57;;;;;;;6.68;4.85;;;;;;;20.41;45.80;101804.16;7974750;28;20508;-67
2021/06/07 16:39:47;;;;;;;5.97;4.47;;;;;;;20.32;46.11;101805.03;7977956;28;20029;-67
2021/06/07 16:43:38;;;;;;;6.57;4.70;;;;;;;20.24;46.09;101802.22;7978422;28;20951;-68
2021/06/07 16:47:29;;;;;;;5.65;4.18;;;;;;;20.16;45.73;101794.09;7970749;28;20041;-67
2021/06/07 16:51:20;;;;;;;6.43;4.57;;;;;;;20.11;46.09;101797.16;7976821;28;20030;-69
2021/06/07 16:55:11;;;;;;;5.35;4.18;;;;;;;20.05;46.29;101789.75;7977672;28;20033;-70
2021/06/07 16:59:01;;;;;;;7.53;3.83;;;;;;;20.03;46.01;101790.84;7974905;28;20059;-68
2021/06/07 17:02:53;;;;;;;5.55;4.07;;;;;;;19.96;45.83;101792.41;7975795;28;20500;-69
2021/06/07 17:06:43;;;;;;;5.40;4.10;;;;;;;19.92;46.18;101793.66;7974842;28;20489;-69
2021/06/07 17:10:35;;;;;;;7.18;4.60;;;;;;;19.84;46.40;101781.00;7998886;28;20033;-69
2021/06/07 17:14:30;;;;;;;4.95;3.35;;;;;;;19.88;46.31;101797.59;7976470;28;20021;-67
2021/06/07 17:18:25;;;;;;;5.53;3.78;;;;;;;19.85;46.40;101789.84;7974719;28;20103;-69
2021/06/07 17:22:16;;;;;;;4.85;4.03;;;;;;;19.84;45.87;101789.00;7970199;28;20048;-69
2021/06/07 17:26:09;;;;;;;4.72;3.65;;;;;;;19.81;45.94;101789.25;7976920;28;20029;-69
2021/06/07 17:30:00;;;;;;;3.92;3.35;;;;;;;19.80;46.21;101788.44;7975863;28;20093;-69
2021/06/07 17:33:52;;;;;;;4.78;3.40;;;;;;;19.79;46.27;101788.59;7973299;28;20053;-69
2021/06/07 17:37:43;;;;;;;5.60;3.80;;;;;;;19.80;46.10;101798.28;7973876;28;20061;-68
2021/06/07 17:41:34;;;;;;;4.38;3.45;;;;;;;19.79;46.17;101792.09;7974447;28;20025;-68
2021/06/07 17:45:25;;;;;;;4.88;3.53;;;;;;;19.78;45.87;101792.22;7971757;28;20094;-68
2021/06/07 17:49:15;;;;;;;5.03;3.88;;;;;;;19.76;45.91;101792.34;7974115;28;20044;-67
2021/06/07 17:53:06;;;;;;;5.53;3.50;;;;;;;19.72;45.82;101780.28;7969833;28;20037;-70
2021/06/07 17:56:57;;;;;;;4.32;3.70;;;;;;;19.71;45.99;101780.44;7972195;28;20037;-70
2021/06/07 18:00:48;;;;;;;3.88;3.35;;;;;;;19.69;46.30;101782.38;7971103;28;20570;-69
2021/06/07 18:04:38;;;;;;;6.30;3.97;;;;;;;19.63;46.38;101778.47;7973238;28;20285;-69
2021/06/07 18:08:30;;;;;;;4.45;3.45;;;;;;;19.61;46.17;101784.91;7973701;28;20040;-68